Time;durP1;ratioP1;P1;durP2;ratioP2;P2;SDS_P1;SDS_P2;PMS_P1;PMS_P2;Temp;Humidity;BMP_temperature;BMP_pressure;BME280_temperature;BME280_humidity;BME280_pressure;Samples;Min_cycle;Max_cycle;Signal;HPM_P1;HPM_P2
2023/06/19 00:01:41;;;;;;;;;;;21.20;99.90;;;;;;5045084;28;20445;-72
2023/06/19 00:04:07;;;;;;;;;;;21.20;99.90;;;;;;5024947;28;19936;-72
2023/06/19 00:06:32;;;;;;;;;;;21.30;99.90;;;;;;5028284;28;19917;-71
2023/06/19 00:08:58;;;;;;;;;;;21.30;99.90;;;;;;5022890;28;20015;-72
2023/06/19 00:11:23;;;;;;;;;;;21.30;99.90;;;;;;5029884;28;20031;-71
2023/06/19 00:13:49;;;;;;;;;;;21.30;99.90;;;;;;5031047;28;19927;-72
2023/06/19 00:16:15;;;;;;;;;;;21.20;99.90;;;;;;5029451;28;19920;-72
2023/06/19 00:18:41;;;;;;;;;;;21.30;99.90;;;;;;5030958;28;19920;-72
2023/06/19 00:21:07;;;;;;;;;;;21.30;99.90;;;;;;5023248;28;20371;-72
2023/06/19 00:23:34;;;;;;;;;;;21.30;99.90;;;;;;5024003;28;20371;-72
2023/06/19 00:26:01;;;;;;;;;;;21.20;99.90;;;;;;5023667;28;19920;-72
2023/06/19 00:28:27;;;;;;;;;;;21.20;99.90;;;;;;5045605;28;19916;-72
2023/06/19 00:30:52;;;;;;;;;;;21.20;99.90;;;;;;5028784;28;20363;-72
2023/06/19 00:33:18;;;;;;;;;;;21.20;99.90;;;;;;5033785;28;19916;-72
2023/06/19 00:35:43;;;;;;;;;;;21.20;99.90;;;;;;5030810;28;19921;-72
2023/06/19 00:38:09;;;;;;;;;;;21.20;99.90;;;;;;5028802;28;20286;-72
2023/06/19 00:40:34;;;;;;;;;;;21.20;99.90;;;;;;5014714;28;19920;-72
2023/06/19 00:43:00;;;;;;;;;;;21.20;99.90;;;;;;5046274;28;20369;-72
2023/06/19 00:45:26;;;;;;;;;;;21.20;99.90;;;;;;5025265;28;19920;-72
2023/06/19 00:47:52;;;;;;;;;;;21.20;99.90;;;;;;5022320;28;19923;-72
2023/06/19 00:50:18;;;;;;;;;;;21.20;99.90;;;;;;5024927;28;19944;-72
2023/06/19 00:52:44;;;;;;;;;;;21.20;99.90;;;;;;5029689;28;19916;-72
2023/06/19 00:55:10;;;;;;;;;;;21.20;99.90;;;;;;5029821;28;20274;-72
2023/06/19 00:57:36;;;;;;;;;;;21.20;99.90;;;;;;5028210;28;19971;-72
2023/06/19 01:00:04;;;;;;;;;;;21.10;99.90;;;;;;5029422;28;20355;-72
2023/06/19 01:02:30;;;;;;;;;;;21.20;99.90;;;;;;5013682;28;19931;-72
2023/06/19 01:04:56;;;;;;;;;;;21.10;99.90;;;;;;5040991;28;19916;-72
2023/06/19 01:07:40;;;;;;;;;;;21.10;99.90;;;;;;5027677;28;19917;-72
2023/06/19 01:10:08;;;;;;;;;;;21.20;99.90;;;;;;5029224;28;19927;-72
2023/06/19 01:12:37;;;;;;;;;;;21.20;99.90;;;;;;5032045;28;20144;-72
2023/06/19 01:15:03;;;;;;;;;;;21.20;99.90;;;;;;5046225;28;19935;-72
2023/06/19 01:17:29;;;;;;;;;;;21.10;99.90;;;;;;5024426;28;19921;-72
2023/06/19 01:19:55;;;;;;;;;;;21.20;99.90;;;;;;5031567;28;19928;-72
2023/06/19 01:22:28;;;;;;;;;;;21.10;99.90;;;;;;5023751;28;20366;-72
2023/06/19 01:24:54;;;;;;;;;;;21.20;99.90;;;;;;5040314;28;19947;-72
2023/06/19 01:27:20;;;;;;;;;;;21.10;99.90;;;;;;5005421;28;19946;-72
2023/06/19 01:29:45;;;;;;;;;;;21.10;99.90;;;;;;5028399;28;19917;-72
2023/06/19 01:32:15;;;;;;;;;;;21.20;99.90;;;;;;5029531;28;19979;-71
2023/06/19 01:34:43;;;;;;;;;;;21.10;99.90;;;;;;5030539;28;20004;-72
2023/06/19 01:37:10;;;;;;;;;;;21.10;99.90;;;;;;5029412;28;20414;-72
2023/06/19 01:39:36;;;;;;;;;;;21.10;99.90;;;;;;5014007;28;19972;-72
2023/06/19 01:42:02;;;;;;;;;;;21.10;99.90;;;;;;5034862;28;19917;-72
2023/06/19 01:44:30;;;;;;;;;;;21.10;99.90;;;;;;5057237;28;19924;-72
2023/06/19 01:46:56;;;;;;;;;;;21.10;99.90;;;;;;5028154;28;19979;-72
2023/06/19 01:49:21;;;;;;;;;;;21.10;99.90;;;;;;5029853;28;19998;-72
2023/06/19 01:51:47;;;;;;;;;;;21.10;99.90;;;;;;5035869;28;20100;-72
2023/06/19 01:54:12;;;;;;;;;;;21.10;99.90;;;;;;5033513;28;19916;-72
2023/06/19 01:56:41;;;;;;;;;;;21.10;99.90;;;;;;5050914;28;20003;-72
2023/06/19 01:59:06;;;;;;;;;;;21.10;99.90;;;;;;5034274;28;19920;-72
2023/06/19 02:01:34;;;;;;;;;;;21.10;99.90;;;;;;5033509;28;19924;-72
2023/06/19 02:04:00;;;;;;;;;;;21.10;99.90;;;;;;5052974;28;20359;-78
2023/06/19 02:06:25;;;;;;;;;;;21.10;99.90;;;;;;5034424;28;20287;-72
2023/06/19 02:08:51;;;;;;;;;;;21.10;99.90;;;;;;5028954;28;19916;-72
2023/06/19 02:11:16;;;;;;;;;;;21.10;99.90;;;;;;5029592;28;19927;-72
2023/06/19 02:13:42;;;;;;;;;;;21.10;99.90;;;;;;5031877;28;19917;-72
2023/06/19 02:16:10;;;;;;;;;;;21.00;99.90;;;;;;5030298;28;19917;-72
2023/06/19 02:18:35;;;;;;;;;;;21.10;99.90;;;;;;5028195;28;21168;-71
2023/06/19 02:21:01;;;;;;;;;;;21.00;99.90;;;;;;5034291;28;20007;-72
2023/06/19 02:23:26;;;;;;;;;;;21.10;99.90;;;;;;5051866;28;19952;-71
2023/06/19 02:25:52;;;;;;;;;;;21.00;99.90;;;;;;5032763;28;19966;-71
2023/06/19 02:28:26;;;;;;;;;;;21.00;99.90;;;;;;5037085;28;20392;-72
2023/06/19 02:30:53;;;;;;;;;;;21.00;99.90;;;;;;5026613;28;19916;-71
2023/06/19 02:33:19;;;;;;;;;;;21.00;99.90;;;;;;5045606;28;19949;-71
2023/06/19 02:35:44;;;;;;;;;;;21.00;99.90;;;;;;5031158;28;19997;-71
2023/06/19 02:38:12;;;;;;;;;;;21.00;99.90;;;;;;5025708;28;19927;-71
2023/06/19 02:40:38;;;;;;;;;;;21.00;99.90;;;;;;5032704;28;19963;-72
2023/06/19 02:43:06;;;;;;;;;;;21.00;99.90;;;;;;5045088;28;19916;-71
2023/06/19 02:45:31;;;;;;;;;;;21.00;99.90;;;;;;5012099;28;20019;-71
2023/06/19 02:47:59;;;;;;;;;;;20.90;99.90;;;;;;5009763;28;19933;-71
2023/06/19 02:50:25;;;;;;;;;;;20.90;99.90;;;;;;5031918;28;19942;-71
2023/06/19 02:52:51;;;;;;;;;;;20.90;99.90;;;;;;5027228;28;19917;-71
2023/06/19 02:55:16;;;;;;;;;;;20.90;99.90;;;;;;5034386;28;20251;-70
2023/06/19 02:57:42;;;;;;;;;;;20.90;99.90;;;;;;5048141;28;19959;-71
2023/06/19 03:00:09;;;;;;;;;;;20.80;99.90;;;;;;5031084;28;20275;-71
2023/06/19 03:02:35;;;;;;;;;;;20.80;99.90;;;;;;5008990;28;20095;-71
2023/06/19 03:05:03;;;;;;;;;;;20.80;99.90;;;;;;5033377;28;19917;-71
2023/06/19 03:07:28;;;;;;;;;;;20.80;99.90;;;;;;5030239;28;20012;-71
2023/06/19 03:09:54;;;;;;;;;;;20.80;99.90;;;;;;5028109;28;20007;-71
2023/06/19 03:12:19;;;;;;;;;;;20.80;99.90;;;;;;5012314;28;20298;-71
2023/06/19 03:14:45;;;;;;;;;;;20.80;99.90;;;;;;5017719;28;19923;-71
2023/06/19 03:17:12;;;;;;;;;;;20.80;99.90;;;;;;5016441;28;19917;-71
2023/06/19 03:19:37;;;;;;;;;;;20.80;99.90;;;;;;5028965;28;19924;-71
2023/06/19 03:22:03;;;;;;;;;;;20.80;99.90;;;;;;5032432;28;20574;-71
2023/06/19 03:24:28;;;;;;;;;;;20.80;99.90;;;;;;5044127;28;19924;-71
2023/06/19 03:26:54;;;;;;;;;;;20.80;99.90;;;;;;5032226;28;19917;-71
2023/06/19 03:29:19;;;;;;;;;;;20.70;99.90;;;;;;5033014;28;19921;-71
2023/06/19 03:31:45;;;;;;;;;;;20.70;99.90;;;;;;5031647;28;19916;-72
2023/06/19 03:34:12;;;;;;;;;;;20.70;99.90;;;;;;5029131;28;20393;-72
2023/06/19 03:36:38;;;;;;;;;;;20.70;99.90;;;;;;5027167;28;19931;-72
2023/06/19 03:39:04;;;;;;;;;;;20.70;99.90;;;;;;5048532;28;19970;-71
2023/06/19 03:41:29;;;;;;;;;;;20.70;99.90;;;;;;5030263;28;20284;-71
2023/06/19 03:43:55;;;;;;;;;;;20.70;99.90;;;;;;5027807;28;19921;-72
2023/06/19 03:46:20;;;;;;;;;;;20.70;99.90;;;;;;5043482;28;19916;-71
2023/06/19 03:48:46;;;;;;;;;;;20.70;99.90;;;;;;5046489;28;19962;-71
2023/06/19 03:51:11;;;;;;;;;;;20.70;99.90;;;;;;5028681;28;19960;-72
2023/06/19 03:53:37;;;;;;;;;;;20.70;99.90;;;;;;5036989;28;20377;-71
2023/06/19 03:56:02;;;;;;;;;;;20.70;99.90;;;;;;5025316;28;20135;-71
2023/06/19 03:58:28;;;;;;;;;;;20.60;99.90;;;;;;5029900;28;19960;-72
2023/06/19 04:00:53;;;;;;;;;;;20.60;99.90;;;;;;5030289;28;19923;-71
2023/06/19 04:03:19;;;;;;;;;;;20.60;99.90;;;;;;5029227;28;19928;-71
2023/06/19 04:05:45;;;;;;;;;;;20.60;99.90;;;;;;5045518;28;19916;-71
2023/06/19 04:08:10;;;;;;;;;;;20.60;99.90;;;;;;5034295;28;19917;-71
2023/06/19 04:10:36;;;;;;;;;;;20.60;99.90;;;;;;5008976;28;20018;-72
2023/06/19 04:13:01;;;;;;;;;;;20.50;99.90;;;;;;5049757;28;20450;-71
2023/06/19 04:15:27;;;;;;;;;;;20.50;99.90;;;;;;5023276;28;19924;-71
2023/06/19 04:17:52;;;;;;;;;;;20.50;99.90;;;;;;5040881;28;19920;-71
2023/06/19 04:20:18;;;;;;;;;;;20.50;99.90;;;;;;5042806;28;19925;-71
2023/06/19 04:22:43;;;;;;;;;;;20.40;99.90;;;;;;5019282;28;19917;-71
2023/06/19 04:25:13;;;;;;;;;;;20.40;99.90;;;;;;5025882;28;19924;-71
2023/06/19 04:27:38;;;;;;;;;;;20.40;99.90;;;;;;5023347;28;19921;-71
2023/06/19 04:30:04;;;;;;;;;;;20.40;99.90;;;;;;5024439;28;20424;-71
2023/06/19 04:32:30;;;;;;;;;;;20.40;99.90;;;;;;5024859;28;19929;-71
2023/06/19 04:34:55;;;;;;;;;;;20.30;99.90;;;;;;5026700;28;20307;-71
2023/06/19 04:37:21;;;;;;;;;;;20.30;99.90;;;;;;5045063;28;20193;-71
2023/06/19 04:39:46;;;;;;;;;;;20.30;99.90;;;;;;5029839;28;19927;-71
2023/06/19 04:42:19;;;;;;;;;;;20.30;99.90;;;;;;5014240;28;20350;-71
2023/06/19 04:44:47;;;;;;;;;;;20.30;99.90;;;;;;5040621;28;19917;-70
2023/06/19 04:47:13;;;;;;;;;;;20.40;99.90;;;;;;5012359;28;19962;-71
2023/06/19 04:49:39;;;;;;;;;;;20.40;99.90;;;;;;5030521;28;20341;-71
2023/06/19 04:52:04;;;;;;;;;;;20.40;99.90;;;;;;5018292;28;19917;-71
2023/06/19 04:54:32;;;;;;;;;;;20.40;99.90;;;;;;5021543;28;19927;-71
2023/06/19 04:56:58;;;;;;;;;;;20.40;99.90;;;;;;5025856;28;20374;-71
2023/06/19 04:59:23;;;;;;;;;;;20.40;99.90;;;;;;5027718;28;19964;-71
2023/06/19 05:01:49;;;;;;;;;;;20.40;99.90;;;;;;5025723;28;19920;-71
2023/06/19 05:04:14;;;;;;;;;;;20.40;99.90;;;;;;5026441;28;19928;-70
2023/06/19 05:06:40;;;;;;;;;;;20.40;99.90;;;;;;5033165;23;19921;-68
2023/06/19 05:09:05;;;;;;;;;;;20.50;99.90;;;;;;5044128;28;20011;-68
2023/06/19 05:11:31;;;;;;;;;;;20.50;99.90;;;;;;5025866;28;19917;-68
2023/06/19 05:13:56;;;;;;;;;;;20.50;99.90;;;;;;5004093;28;19956;-68
2023/06/19 05:16:22;;;;;;;;;;;20.50;99.90;;;;;;5002634;28;20383;-68
2023/06/19 05:18:49;;;;;;;;;;;20.50;99.90;;;;;;5032759;28;19921;-68
2023/06/19 05:21:14;;;;;;;;;;;20.50;99.90;;;;;;5027036;28;20358;-68
2023/06/19 05:23:40;;;;;;;;;;;20.60;99.90;;;;;;5010163;28;19927;-68
2023/06/19 05:26:06;;;;;;;;;;;20.50;99.90;;;;;;5012623;28;19971;-68
2023/06/19 05:28:31;;;;;;;;;;;20.60;99.90;;;;;;5025166;28;20374;-68
2023/06/19 05:30:57;;;;;;;;;;;20.60;99.90;;;;;;5007631;28;19917;-68
2023/06/19 05:33:23;;;;;;;;;;;20.60;99.90;;;;;;5024169;28;19943;-68
2023/06/19 05:35:52;;;;;;;;;;;20.60;99.90;;;;;;5007259;28;20276;-67
2023/06/19 05:38:18;;;;;;;;;;;20.60;99.90;;;;;;5023307;28;19948;-67
2023/06/19 05:40:43;;;;;;;;;;;20.60;99.90;;;;;;5008731;28;19917;-67
2023/06/19 05:43:09;;;;;;;;;;;20.50;99.90;;;;;;5026461;28;19920;-67
2023/06/19 05:45:34;;;;;;;;;;;20.50;99.90;;;;;;5022127;28;20177;-68
2023/06/19 05:48:00;;;;;;;;;;;20.60;99.90;;;;;;5020726;28;19940;-68
2023/06/19 05:50:25;;;;;;;;;;;20.60;99.90;;;;;;5010966;28;20402;-68
2023/06/19 05:52:51;;;;;;;;;;;20.60;99.90;;;;;;5004870;28;19937;-67
2023/06/19 05:55:16;;;;;;;;;;;20.60;99.90;;;;;;4999567;28;19979;-67
2023/06/19 05:57:42;;;;;;;;;;;20.70;99.90;;;;;;5011279;28;19916;-68
2023/06/19 06:00:11;;;;;;;;;;;20.70;99.90;;;;;;5008556;28;19964;-68
2023/06/19 06:02:37;;;;;;;;;;;20.70;99.90;;;;;;5021359;28;19917;-67
2023/06/19 06:05:03;;;;;;;;;;;20.70;99.90;;;;;;5027498;28;20302;-68
2023/06/19 06:07:29;;;;;;;;;;;20.70;99.90;;;;;;5027859;28;20011;-67
2023/06/19 06:09:55;;;;;;;;;;;20.80;99.90;;;;;;5001528;28;20394;-67
2023/06/19 06:12:20;;;;;;;;;;;20.80;99.90;;;;;;5012849;28;19952;-67
2023/06/19 06:14:46;;;;;;;;;;;20.90;99.90;;;;;;5022846;28;20022;-67
2023/06/19 06:17:11;;;;;;;;;;;20.90;99.90;;;;;;5006632;28;20279;-67
2023/06/19 06:19:38;;;;;;;;;;;20.90;99.90;;;;;;5020533;28;19929;-67
2023/06/19 06:22:04;;;;;;;;;;;20.90;99.90;;;;;;5011619;28;19939;-68
2023/06/19 06:24:29;;;;;;;;;;;20.90;99.90;;;;;;5013264;28;19921;-68
2023/06/19 06:26:55;;;;;;;;;;;20.90;99.90;;;;;;4990576;28;19937;-67
2023/06/19 06:29:20;;;;;;;;;;;20.90;99.90;;;;;;5025785;28;19931;-67
2023/06/19 06:31:46;;;;;;;;;;;20.90;99.90;;;;;;5023648;28;19917;-68
2023/06/19 06:34:12;;;;;;;;;;;20.80;99.90;;;;;;5025084;28;19987;-68
2023/06/19 06:36:38;;;;;;;;;;;20.80;99.90;;;;;;5012486;28;20386;-67
2023/06/19 06:39:03;;;;;;;;;;;20.80;99.90;;;;;;5022066;28;19991;-67
2023/06/19 06:41:29;;;;;;;;;;;20.70;99.90;;;;;;5024419;28;19921;-68
2023/06/19 06:43:55;;;;;;;;;;;20.50;99.90;;;;;;5028738;28;20008;-67
2023/06/19 06:46:21;;;;;;;;;;;20.50;99.90;;;;;;5008253;28;19974;-67
2023/06/19 06:48:46;;;;;;;;;;;20.40;99.90;;;;;;5016023;28;19917;-67
2023/06/19 06:51:12;;;;;;;;;;;20.30;99.90;;;;;;5008923;28;19928;-67
2023/06/19 06:53:37;;;;;;;;;;;20.20;99.90;;;;;;5006359;28;19925;-67
2023/06/19 06:56:03;;;;;;;;;;;20.20;99.90;;;;;;5016367;28;19936;-67
2023/06/19 06:58:28;;;;;;;;;;;20.10;99.90;;;;;;5030840;28;20419;-67
2023/06/19 07:00:55;;;;;;;;;;;20.10;99.90;;;;;;5026943;28;19921;-68
2023/06/19 07:03:20;;;;;;;;;;;20.10;99.90;;;;;;5028679;28;19955;-67
2023/06/19 07:05:47;;;;;;;;;;;20.00;99.90;;;;;;5021852;28;19976;-68
2023/06/19 07:08:12;;;;;;;;;;;20.00;99.90;;;;;;5023921;28;19963;-68
2023/06/19 07:10:38;;;;;;;;;;;20.00;99.90;;;;;;5005359;28;19925;-67
2023/06/19 07:13:03;;;;;;;;;;;20.00;99.90;;;;;;5031122;28;20027;-68
2023/06/19 07:15:29;;;;;;;;;;;20.00;99.90;;;;;;5014036;28;19927;-68
2023/06/19 07:17:55;;;;;;;;;;;20.00;99.90;;;;;;5031890;28;19916;-67
2023/06/19 07:20:21;;;;;;;;;;;20.00;99.90;;;;;;5001956;28;19921;-68
2023/06/19 07:22:46;;;;;;;;;;;19.90;99.90;;;;;;5025045;28;19924;-68
2023/06/19 07:25:12;;;;;;;;;;;20.00;99.90;;;;;;5009833;28;19937;-68
2023/06/19 07:27:38;;;;;;;;;;;20.00;99.90;;;;;;5011531;28;19917;-67
2023/06/19 07:30:04;;;;;;;;;;;19.90;99.90;;;;;;5026739;28;19928;-67
2023/06/19 07:32:29;;;;;;;;;;;19.90;99.90;;;;;;5016685;28;19921;-67
2023/06/19 07:34:55;;;;;;;;;;;19.90;99.90;;;;;;5027931;28;20304;-67
2023/06/19 07:37:20;;;;;;;;;;;19.90;99.90;;;;;;5011090;28;19935;-68
2023/06/19 07:39:46;;;;;;;;;;;19.90;99.90;;;;;;5011118;28;20392;-68
2023/06/19 07:42:15;;;;;;;;;;;19.90;99.90;;;;;;5026843;28;20387;-68
2023/06/19 07:44:41;;;;;;;;;;;19.90;99.90;;;;;;5008348;28;19943;-68
2023/06/19 07:47:08;;;;;;;;;;;20.00;99.90;;;;;;5030743;28;20083;-67
2023/06/19 07:49:33;;;;;;;;;;;20.00;99.90;;;;;;5030746;28;19917;-67
2023/06/19 07:51:59;;;;;;;;;;;19.90;99.90;;;;;;5031607;28;19928;-68
2023/06/19 07:54:25;;;;;;;;;;;20.00;99.90;;;;;;5030980;28;19917;-67
2023/06/19 07:56:50;;;;;;;;;;;20.00;99.90;;;;;;5013595;28;20345;-68
2023/06/19 07:59:16;;;;;;;;;;;19.90;99.90;;;;;;4992213;28;19929;-67
2023/06/19 08:01:42;;;;;;;;;;;20.00;99.90;;;;;;5009572;28;19917;-68
2023/06/19 08:04:08;;;;;;;;;;;19.90;99.90;;;;;;5011787;28;19917;-67
2023/06/19 08:06:33;;;;;;;;;;;19.90;99.90;;;;;;5008579;28;19921;-68
2023/06/19 08:08:59;;;;;;;;;;;19.90;99.90;;;;;;5029517;28;20382;-68
2023/06/19 08:11:24;;;;;;;;;;;19.90;99.90;;;;;;5006835;28;19997;-68
2023/06/19 08:13:50;;;;;;;;;;;19.80;99.90;;;;;;5011218;28;20015;-68
2023/06/19 08:16:16;;;;;;;;;;;19.80;99.90;;;;;;5027085;28;19925;-67
2023/06/19 08:18:42;;;;;;;;;;;19.80;99.90;;;;;;5026597;28;19947;-68
2023/06/19 08:21:07;;;;;;;;;;;19.80;99.90;;;;;;5020899;28;19955;-68
2023/06/19 08:23:33;;;;;;;;;;;19.80;99.90;;;;;;5027966;28;19960;-67
2023/06/19 08:25:58;;;;;;;;;;;19.80;99.90;;;;;;5010763;28;19963;-68
2023/06/19 08:28:24;;;;;;;;;;;19.80;99.90;;;;;;5016456;28;19921;-68
2023/06/19 08:30:50;;;;;;;;;;;19.80;99.90;;;;;;5009833;28;19917;-68
2023/06/19 08:33:15;;;;;;;;;;;19.90;99.90;;;;;;5026673;28;20322;-68
2023/06/19 08:35:41;;;;;;;;;;;19.80;99.90;;;;;;5009607;28;20276;-68
2023/06/19 08:38:06;;;;;;;;;;;19.90;99.90;;;;;;5008828;28;19921;-68
2023/06/19 08:40:32;;;;;;;;;;;19.80;99.90;;;;;;5027184;28;20360;-68
2023/06/19 08:42:58;;;;;;;;;;;19.80;99.90;;;;;;5028864;28;19971;-68
2023/06/19 08:45:25;;;;;;;;;;;19.80;99.90;;;;;;5022063;28;20275;-68
2023/06/19 08:47:57;;;;;;;;;;;19.80;99.90;;;;;;5032525;28;19920;-68
2023/06/19 08:50:22;;;;;;;;;;;19.80;99.90;;;;;;5025629;28;20497;-67
2023/06/19 08:52:48;;;;;;;;;;;19.80;99.90;;;;;;5031079;28;19925;-68
2023/06/19 08:55:13;;;;;;;;;;;19.80;99.90;;;;;;5027308;28;19917;-68
2023/06/19 08:57:40;;;;;;;;;;;19.70;99.90;;;;;;5018637;28;19933;-67
2023/06/19 09:00:07;;;;;;;;;;;19.80;99.90;;;;;;4987945;28;19925;-67
2023/06/19 09:02:40;;;;;;;;;;;19.80;99.90;;;;;;5017918;28;19917;-68
2023/06/19 09:05:13;;;;;;;;;;;19.70;99.90;;;;;;5002550;28;19936;-68
2023/06/19 09:07:39;;;;;;;;;;;19.80;99.90;;;;;;5019745;28;19921;-68
2023/06/19 09:10:12;;;;;;;;;;;19.80;99.90;;;;;;5003461;28;20472;-68
2023/06/19 09:12:37;;;;;;;;;;;19.80;99.90;;;;;;5012751;28;19925;-69
2023/06/19 09:15:11;;;;;;;;;;;19.80;99.90;;;;;;5014925;28;20434;-68
2023/06/19 09:17:36;;;;;;;;;;;19.80;99.90;;;;;;5005412;28;20344;-68
2023/06/19 09:20:05;;;;;;;;;;;19.70;99.90;;;;;;5027398;28;19929;-68
2023/06/19 09:22:30;;;;;;;;;;;19.70;99.90;;;;;;5025801;28;19917;-69
2023/06/19 09:25:00;;;;;;;;;;;19.70;99.90;;;;;;5025713;28;19920;-68
2023/06/19 09:27:31;;;;;;;;;;;19.70;99.90;;;;;;5013933;28;19932;-68
2023/06/19 09:29:56;;;;;;;;;;;19.70;99.90;;;;;;5021147;28;20418;-67
2023/06/19 09:32:23;;;;;;;;;;;19.70;99.90;;;;;;5031423;28;19921;-68
2023/06/19 09:34:50;;;;;;;;;;;19.60;99.90;;;;;;5021722;28;19917;-68
2023/06/19 09:37:21;;;;;;;;;;;19.70;99.90;;;;;;5017719;28;19987;-68
2023/06/19 09:39:49;;;;;;;;;;;19.70;99.90;;;;;;5032727;28;19921;-68
2023/06/19 09:42:15;;;;;;;;;;;19.70;99.90;;;;;;5014765;28;20444;-68
2023/06/19 09:44:44;;;;;;;;;;;19.80;99.90;;;;;;5033791;28;20293;-67
2023/06/19 09:47:20;;;;;;;;;;;19.80;99.90;;;;;;5025790;28;20288;-67
2023/06/19 09:49:52;;;;;;;;;;;19.90;99.90;;;;;;5018127;28;19924;-68
2023/06/19 09:52:20;;;;;;;;;;;19.90;99.90;;;;;;5010707;28;19984;-68
2023/06/19 09:54:46;;;;;;;;;;;20.00;99.90;;;;;;5030946;28;19935;-67
2023/06/19 09:57:12;;;;;;;;;;;20.00;99.90;;;;;;5012442;28;20397;-67
2023/06/19 09:59:39;;;;;;;;;;;20.00;99.90;;;;;;5033283;28;19921;-67
2023/06/19 10:02:06;;;;;;;;;;;20.00;99.90;;;;;;5022486;28;19924;-67
2023/06/19 10:04:43;;;;;;;;;;;20.00;99.90;;;;;;5030244;28;20293;-67
2023/06/19 10:07:14;;;;;;;;;;;19.90;99.90;;;;;;5015387;28;19942;-66
2023/06/19 10:09:40;;;;;;;;;;;19.90;99.90;;;;;;5036376;28;20268;-66
2023/06/19 10:12:12;;;;;;;;;;;19.90;99.90;;;;;;5027490;28;19924;-66
2023/06/19 10:14:44;;;;;;;;;;;19.90;99.90;;;;;;5024851;28;20454;-67
2023/06/19 10:17:11;;;;;;;;;;;19.90;99.90;;;;;;5005882;28;20016;-67
2023/06/19 10:19:36;;;;;;;;;;;19.90;99.90;;;;;;5030427;28;20441;-67
2023/06/19 10:22:03;;;;;;;;;;;19.90;99.90;;;;;;5029887;28;19964;-67
2023/06/19 10:24:28;;;;;;;;;;;19.90;99.90;;;;;;5034128;28;19916;-66
2023/06/19 10:27:02;;;;;;;;;;;20.00;99.90;;;;;;5009774;28;19917;-67
2023/06/19 10:29:40;;;;;;;;;;;20.10;99.90;;;;;;5023138;28;19961;-67
2023/06/19 10:32:06;;;;;;;;;;;20.20;99.90;;;;;;5028200;28;19924;-67
2023/06/19 10:34:35;;;;;;;;;;;20.30;99.90;;;;;;5011186;28;20317;-67
2023/06/19 10:37:00;;;;;;;;;;;20.50;99.90;;;;;;5010487;28;20015;-67
2023/06/19 10:39:26;;;;;;;;;;;20.60;99.90;;;;;;5015744;28;20007;-67
2023/06/19 10:41:51;;;;;;;;;;;20.80;99.90;;;;;;5041945;28;19952;-67
2023/06/19 10:44:17;;;;;;;;;;;20.80;99.90;;;;;;5033459;28;19975;-67
2023/06/19 10:46:43;;;;;;;;;;;20.80;99.90;;;;;;5018480;28;19927;-67
2023/06/19 10:49:10;;;;;;;;;;;20.80;99.90;;;;;;5029708;28;20011;-67
2023/06/19 10:51:36;;;;;;;;;;;20.70;99.90;;;;;;5030859;28;19921;-66
2023/06/19 10:54:02;;;;;;;;;;;20.70;99.90;;;;;;5003699;28;19917;-67
2023/06/19 10:56:27;;;;;;;;;;;20.80;99.90;;;;;;5011999;28;20314;-66
2023/06/19 10:58:59;;;;;;;;;;;20.80;99.90;;;;;;5009507;28;20378;-67
2023/06/19 11:01:32;;;;;;;;;;;20.90;99.90;;;;;;5017413;28;19918;-66
2023/06/19 11:03:57;;;;;;;;;;;21.00;99.90;;;;;;5010867;28;19921;-67
2023/06/19 11:06:24;;;;;;;;;;;21.00;99.90;;;;;;5021936;28;20402;-67
2023/06/19 11:08:52;;;;;;;;;;;21.10;99.90;;;;;;5027438;28;20382;-67
2023/06/19 11:11:20;;;;;;;;;;;21.20;99.90;;;;;;5011476;28;20321;-67
2023/06/19 11:13:45;;;;;;;;;;;21.10;99.90;;;;;;5014175;28;19917;-68
2023/06/19 11:16:11;;;;;;;;;;;21.10;99.90;;;;;;5028635;28;20004;-67
2023/06/19 11:18:36;;;;;;;;;;;21.10;99.90;;;;;;5034535;28;20375;-67
2023/06/19 11:21:02;;;;;;;;;;;21.10;99.90;;;;;;5008165;28;20293;-68
2023/06/19 11:23:28;;;;;;;;;;;21.10;99.90;;;;;;4999426;28;19917;-67
2023/06/19 11:26:01;;;;;;;;;;;21.20;99.90;;;;;;5025634;28;19991;-67
2023/06/19 11:28:27;;;;;;;;;;;21.30;99.90;;;;;;5006941;28;19927;-67
2023/06/19 11:30:59;;;;;;;;;;;21.20;99.90;;;;;;5007404;28;20422;-67
2023/06/19 11:33:25;;;;;;;;;;;21.20;99.90;;;;;;5017236;28;20358;-67
2023/06/19 11:35:51;;;;;;;;;;;21.10;99.90;;;;;;5013492;28;19961;-67
2023/06/19 11:38:21;;;;;;;;;;;21.20;99.90;;;;;;5011821;28;19996;-67
2023/06/19 11:40:47;;;;;;;;;;;21.30;99.90;;;;;;5027110;28;20286;-67
2023/06/19 11:43:23;;;;;;;;;;;21.30;99.90;;;;;;5016841;28;19933;-67
2023/06/19 11:45:49;;;;;;;;;;;21.30;99.90;;;;;;5027577;28;19928;-67
2023/06/19 11:48:21;;;;;;;;;;;21.30;99.90;;;;;;5008869;28;19923;-67
2023/06/19 11:50:46;;;;;;;;;;;21.30;99.90;;;;;;5016187;28;19917;-69
2023/06/19 11:53:13;;;;;;;;;;;21.40;99.90;;;;;;5031176;28;19975;-69
2023/06/19 11:55:38;;;;;;;;;;;21.40;99.90;;;;;;5017338;28;19917;-69
2023/06/19 11:58:04;;;;;;;;;;;21.50;99.90;;;;;;5009279;28;20638;-69
2023/06/19 12:00:29;;;;;;;;;;;21.60;99.90;;;;;;5031844;28;20332;-69
2023/06/19 12:02:57;;;;;;;;;;;21.70;99.90;;;;;;5008238;28;19921;-69
2023/06/19 12:05:22;;;;;;;;;;;22.00;99.90;;;;;;5028698;28;19956;-69
2023/06/19 12:07:48;;;;;;;;;;;22.10;99.90;;;;;;5011759;28;19963;-69
2023/06/19 12:10:13;;;;;;;;;;;22.30;99.90;;;;;;5014088;28;20032;-70
2023/06/19 12:12:39;;;;;;;;;;;22.30;99.90;;;;;;5012293;28;19960;-69
2023/06/19 12:15:05;;;;;;;;;;;22.30;99.90;;;;;;5015140;28;20059;-69
2023/06/19 12:17:31;;;;;;;;;;;22.30;99.90;;;;;;5030380;28;19928;-69
2023/06/19 12:19:56;;;;;;;;;;;22.40;99.90;;;;;;5012770;28;19921;-69
2023/06/19 12:22:22;;;;;;;;;;;22.50;99.90;;;;;;5025639;28;19924;-69
2023/06/19 12:24:48;;;;;;;;;;;22.60;99.90;;;;;;5010211;28;20210;-69
2023/06/19 12:27:14;;;;;;;;;;;22.60;99.90;;;;;;5009521;28;19918;-69
2023/06/19 12:29:39;;;;;;;;;;;22.70;99.90;;;;;;5000544;28;19964;-69
2023/06/19 12:32:05;;;;;;;;;;;22.70;99.90;;;;;;5009132;28;19921;-70
2023/06/19 12:34:33;;;;;;;;;;;22.90;99.90;;;;;;5011357;28;19923;-69
2023/06/19 12:36:59;;;;;;;;;;;23.00;99.90;;;;;;5024919;28;19924;-69
2023/06/19 12:39:27;;;;;;;;;;;23.10;99.90;;;;;;5032759;28;19921;-69
2023/06/19 12:41:52;;;;;;;;;;;23.20;99.90;;;;;;5010438;28;19917;-69
2023/06/19 12:44:18;;;;;;;;;;;23.30;99.90;;;;;;5034365;28;19917;-69
2023/06/19 12:46:44;;;;;;;;;;;23.30;99.90;;;;;;4988300;28;20524;-69
2023/06/19 12:49:10;;;;;;;;;;;23.40;99.90;;;;;;4999568;28;19928;-70
2023/06/19 12:51:35;;;;;;;;;;;23.40;99.90;;;;;;5027968;28;19920;-69
2023/06/19 12:54:01;;;;;;;;;;;23.50;99.90;;;;;;5026830;28;19939;-69
2023/06/19 12:56:26;;;;;;;;;;;23.50;99.90;;;;;;5015353;28;19916;-69
2023/06/19 12:58:52;;;;;;;;;;;23.60;99.90;;;;;;5021051;28;20044;-70
2023/06/19 13:01:17;;;;;;;;;;;23.60;99.90;;;;;;5011782;28;19990;-69
2023/06/19 13:03:43;;;;;;;;;;;23.80;99.90;;;;;;5012511;28;19917;-69
2023/06/19 13:06:08;;;;;;;;;;;23.80;99.90;;;;;;5018557;28;19932;-69
2023/06/19 13:08:34;;;;;;;;;;;23.80;99.90;;;;;;5014560;28;20341;-69
2023/06/19 13:10:59;;;;;;;;;;;24.00;99.90;;;;;;5034570;28;19928;-69
2023/06/19 13:13:25;;;;;;;;;;;24.20;99.90;;;;;;5001718;28;19940;-70
2023/06/19 13:15:51;;;;;;;;;;;24.20;99.90;;;;;;5006258;28;20020;-70
2023/06/19 13:18:17;;;;;;;;;;;24.30;99.90;;;;;;5012464;28;19925;-70
2023/06/19 13:20:44;;;;;;;;;;;24.30;99.90;;;;;;5030356;28;19931;-70
2023/06/19 13:23:10;;;;;;;;;;;24.50;99.90;;;;;;5031905;28;19928;-70
2023/06/19 13:25:36;;;;;;;;;;;24.60;99.90;;;;;;5030425;28;19948;-70
2023/06/19 13:28:01;;;;;;;;;;;24.60;99.90;;;;;;5033760;28;20019;-70
2023/06/19 13:30:29;;;;;;;;;;;24.70;99.90;;;;;;4998905;28;19990;-70
2023/06/19 13:32:54;;;;;;;;;;;24.70;99.90;;;;;;5014957;28;19924;-70
2023/06/19 13:35:21;;;;;;;;;;;24.80;99.90;;;;;;5027993;28;20501;-70
2023/06/19 13:37:47;;;;;;;;;;;24.80;99.90;;;;;;5031874;28;19917;-70
2023/06/19 13:40:13;;;;;;;;;;;24.80;99.90;;;;;;4989627;28;19933;-70
2023/06/19 13:42:38;;;;;;;;;;;24.90;99.90;;;;;;5017836;28;20278;-70
2023/06/19 13:45:07;;;;;;;;;;;24.90;99.90;;;;;;5012063;28;19920;-70
2023/06/19 13:47:32;;;;;;;;;;;24.90;99.90;;;;;;5008188;28;19996;-70
2023/06/19 13:49:58;;;;;;;;;;;24.80;99.90;;;;;;5032709;28;20520;-70
2023/06/19 13:52:23;;;;;;;;;;;24.80;99.90;;;;;;5031344;28;19947;-70
2023/06/19 13:54:49;;;;;;;;;;;24.80;99.90;;;;;;5014667;28;19928;-70
2023/06/19 13:57:15;;;;;;;;;;;24.80;99.90;;;;;;5012539;28;20397;-70
2023/06/19 13:59:41;;;;;;;;;;;24.90;99.90;;;;;;5032265;28;19996;-70
2023/06/19 14:02:06;;;;;;;;;;;25.00;99.90;;;;;;5026424;28;19956;-70
2023/06/19 14:04:32;;;;;;;;;;;25.20;99.90;;;;;;5013376;28;20017;-70
2023/06/19 14:07:00;;;;;;;;;;;25.50;99.90;;;;;;4992467;28;20048;-70
2023/06/19 14:09:25;;;;;;;;;;;25.70;99.90;;;;;;5038254;28;19956;-70
2023/06/19 14:11:51;;;;;;;;;;;25.70;99.90;;;;;;5018822;28;19956;-70